sensor_id;sensor_type;location;lat;lon;timestamp;P1;durP1;ratioP1;P2;durP2;ratioP2
29550;SDS011;16488;52.396;10.696;2022-08-26T00:01:37;20.23;;;11.45;;
29550;SDS011;16488;52.396;10.696;2022-08-26T00:04:03;29.80;;;12.02;;
29550;SDS011;16488;52.396;10.696;2022-08-26T00:06:30;19.45;;;11.25;;
29550;SDS011;16488;52.396;10.696;2022-08-26T00:08:56;20.30;;;10.98;;
29550;SDS011;16488;52.396;10.696;2022-08-26T00:11:22;19.88;;;11.27;;
29550;SDS011;16488;52.396;10.696;2022-08-26T00:13:48;19.45;;;11.63;;
29550;SDS011;16488;52.396;10.696;2022-08-26T00:16:13;27.00;;;11.13;;
29550;SDS011;16488;52.396;10.696;2022-08-26T00:18:39;26.50;;;11.70;;
29550;SDS011;16488;52.396;10.696;2022-08-26T00:21:05;19.52;;;11.07;;
29550;SDS011;16488;52.396;10.696;2022-08-26T00:23:32;24.88;;;11.02;;
29550;SDS011;16488;52.396;10.696;2022-08-26T00:25:58;18.80;;;12.23;;
29550;SDS011;16488;52.396;10.696;2022-08-26T00:28:23;26.60;;;11.10;;
29550;SDS011;16488;52.396;10.696;2022-08-26T00:30:49;19.13;;;11.10;;
29550;SDS011;16488;52.396;10.696;2022-08-26T00:33:15;20.60;;;11.40;;
29550;SDS011;16488;52.396;10.696;2022-08-26T00:35:41;22.90;;;11.45;;
29550;SDS011;16488;52.396;10.696;2022-08-26T00:38:07;20.50;;;10.73;;
29550;SDS011;16488;52.396;10.696;2022-08-26T00:40:36;28.85;;;11.70;;
29550;SDS011;16488;52.396;10.696;2022-08-26T00:43:09;20.92;;;12.07;;
29550;SDS011;16488;52.396;10.696;2022-08-26T00:45:40;28.65;;;12.50;;
29550;SDS011;16488;52.396;10.696;2022-08-26T00:48:12;20.92;;;11.75;;
29550;SDS011;16488;52.396;10.696;2022-08-26T00:50:42;20.77;;;11.77;;
29550;SDS011;16488;52.396;10.696;2022-08-26T00:53:16;22.25;;;11.70;;
29550;SDS011;16488;52.396;10.696;2022-08-26T00:55:52;27.15;;;11.40;;
29550;SDS011;16488;52.396;10.696;2022-08-26T00:58:22;29.15;;;12.20;;
29550;SDS011;16488;52.396;10.696;2022-08-26T01:00:50;25.27;;;12.15;;
29550;SDS011;16488;52.396;10.696;2022-08-26T01:03:18;23.10;;;11.80;;
29550;SDS011;16488;52.396;10.696;2022-08-26T01:05:47;22.90;;;12.50;;
29550;SDS011;16488;52.396;10.696;2022-08-26T01:08:13;23.60;;;12.95;;
29550;SDS011;16488;52.396;10.696;2022-08-26T01:10:39;24.10;;;11.50;;
29550;SDS011;16488;52.396;10.696;2022-08-26T01:13:06;33.57;;;13.60;;
29550;SDS011;16488;52.396;10.696;2022-08-26T01:15:36;24.38;;;12.25;;
29550;SDS011;16488;52.396;10.696;2022-08-26T01:18:07;21.35;;;12.95;;
29550;SDS011;16488;52.396;10.696;2022-08-26T01:20:40;25.60;;;11.85;;
29550;SDS011;16488;52.396;10.696;2022-08-26T01:23:25;19.23;;;13.95;;
29550;SDS011;16488;52.396;10.696;2022-08-26T01:25:54;23.48;;;12.02;;
29550;SDS011;16488;52.396;10.696;2022-08-26T01:28:24;32.50;;;13.57;;
29550;SDS011;16488;52.396;10.696;2022-08-26T01:30:52;26.85;;;14.48;;
29550;SDS011;16488;52.396;10.696;2022-08-26T01:33:22;23.92;;;12.13;;
29550;SDS011;16488;52.396;10.696;2022-08-26T01:35:56;24.60;;;13.57;;
29550;SDS011;16488;52.396;10.696;2022-08-26T01:38:22;29.42;;;14.02;;
29550;SDS011;16488;52.396;10.696;2022-08-26T01:40:47;19.83;;;12.23;;
29550;SDS011;16488;52.396;10.696;2022-08-26T01:43:15;28.30;;;12.70;;
29550;SDS011;16488;52.396;10.696;2022-08-26T01:45:45;22.42;;;11.40;;
29550;SDS011;16488;52.396;10.696;2022-08-26T01:48:14;29.17;;;12.57;;
29550;SDS011;16488;52.396;10.696;2022-08-26T01:50:43;30.80;;;12.45;;
29550;SDS011;16488;52.396;10.696;2022-08-26T01:53:10;27.48;;;13.77;;
29550;SDS011;16488;52.396;10.696;2022-08-26T01:55:40;20.55;;;12.43;;
29550;SDS011;16488;52.396;10.696;2022-08-26T01:58:09;26.25;;;12.77;;
29550;SDS011;16488;52.396;10.696;2022-08-26T02:00:41;26.13;;;12.85;;
29550;SDS011;16488;52.396;10.696;2022-08-26T02:03:08;26.80;;;13.50;;
29550;SDS011;16488;52.396;10.696;2022-08-26T02:05:44;34.13;;;12.90;;
29550;SDS011;16488;52.396;10.696;2022-08-26T02:08:11;27.95;;;14.73;;
29550;SDS011;16488;52.396;10.696;2022-08-26T02:10:38;27.45;;;13.60;;
29550;SDS011;16488;52.396;10.696;2022-08-26T02:13:05;30.00;;;14.65;;
29550;SDS011;16488;52.396;10.696;2022-08-26T02:15:33;21.52;;;14.32;;
29550;SDS011;16488;52.396;10.696;2022-08-26T02:17:59;30.88;;;14.10;;
29550;SDS011;16488;52.396;10.696;2022-08-26T02:20:27;27.23;;;13.65;;
29550;SDS011;16488;52.396;10.696;2022-08-26T02:22:53;25.80;;;14.80;;
29550;SDS011;16488;52.396;10.696;2022-08-26T02:25:22;27.50;;;14.60;;
29550;SDS011;16488;52.396;10.696;2022-08-26T02:27:55;33.55;;;15.80;;
29550;SDS011;16488;52.396;10.696;2022-08-26T02:30:22;28.05;;;14.88;;
29550;SDS011;16488;52.396;10.696;2022-08-26T02:32:50;22.25;;;14.13;;
29550;SDS011;16488;52.396;10.696;2022-08-26T02:35:17;27.92;;;14.32;;
29550;SDS011;16488;52.396;10.696;2022-08-26T02:37:44;25.48;;;14.52;;
29550;SDS011;16488;52.396;10.696;2022-08-26T02:40:12;25.02;;;12.85;;
29550;SDS011;16488;52.396;10.696;2022-08-26T02:42:40;27.60;;;15.05;;
29550;SDS011;16488;52.396;10.696;2022-08-26T02:45:05;32.25;;;14.43;;
29550;SDS011;16488;52.396;10.696;2022-08-26T02:47:32;22.67;;;14.27;;
29550;SDS011;16488;52.396;10.696;2022-08-26T02:49:58;27.85;;;12.68;;
29550;SDS011;16488;52.396;10.696;2022-08-26T02:52:24;26.17;;;14.70;;
29550;SDS011;16488;52.396;10.696;2022-08-26T02:54:50;25.25;;;14.30;;
29550;SDS011;16488;52.396;10.696;2022-08-26T02:57:16;27.98;;;14.38;;
29550;SDS011;16488;52.396;10.696;2022-08-26T02:59:43;26.42;;;13.93;;
29550;SDS011;16488;52.396;10.696;2022-08-26T03:02:08;28.30;;;14.50;;
29550;SDS011;16488;52.396;10.696;2022-08-26T03:04:35;25.40;;;15.10;;
29550;SDS011;16488;52.396;10.696;2022-08-26T03:07:03;23.63;;;14.40;;
29550;SDS011;16488;52.396;10.696;2022-08-26T03:09:28;25.23;;;15.27;;
29550;SDS011;16488;52.396;10.696;2022-08-26T03:11:54;22.50;;;14.97;;
29550;SDS011;16488;52.396;10.696;2022-08-26T03:14:20;22.93;;;14.80;;
29550;SDS011;16488;52.396;10.696;2022-08-26T03:16:48;24.45;;;14.85;;
29550;SDS011;16488;52.396;10.696;2022-08-26T03:19:16;26.98;;;15.18;;
29550;SDS011;16488;52.396;10.696;2022-08-26T03:21:41;27.20;;;15.18;;
29550;SDS011;16488;52.396;10.696;2022-08-26T03:24:08;27.50;;;16.08;;
29550;SDS011;16488;52.396;10.696;2022-08-26T03:26:35;33.28;;;16.00;;
29550;SDS011;16488;52.396;10.696;2022-08-26T03:29:00;27.77;;;16.17;;
29550;SDS011;16488;52.396;10.696;2022-08-26T03:31:45;24.95;;;14.23;;
29550;SDS011;16488;52.396;10.696;2022-08-26T03:34:10;28.20;;;14.60;;
29550;SDS011;16488;52.396;10.696;2022-08-26T03:36:36;26.92;;;15.63;;
29550;SDS011;16488;52.396;10.696;2022-08-26T03:39:03;31.95;;;14.85;;
29550;SDS011;16488;52.396;10.696;2022-08-26T03:41:29;24.63;;;15.93;;
29550;SDS011;16488;52.396;10.696;2022-08-26T03:43:56;26.27;;;16.48;;
29550;SDS011;16488;52.396;10.696;2022-08-26T03:46:22;27.15;;;14.95;;
29550;SDS011;16488;52.396;10.696;2022-08-26T03:48:48;31.20;;;17.20;;
29550;SDS011;16488;52.396;10.696;2022-08-26T03:51:14;24.70;;;16.07;;
29550;SDS011;16488;52.396;10.696;2022-08-26T03:53:41;28.00;;;16.08;;
29550;SDS011;16488;52.396;10.696;2022-08-26T03:56:07;32.45;;;15.77;;
29550;SDS011;16488;52.396;10.696;2022-08-26T03:58:33;25.15;;;15.68;;
29550;SDS011;16488;52.396;10.696;2022-08-26T04:00:59;33.15;;;15.23;;
29550;SDS011;16488;52.396;10.696;2022-08-26T04:03:25;20.73;;;13.93;;
29550;SDS011;16488;52.396;10.696;2022-08-26T04:06:09;28.98;;;15.57;;
29550;SDS011;16488;52.396;10.696;2022-08-26T04:08:35;23.65;;;15.95;;
29550;SDS011;16488;52.396;10.696;2022-08-26T04:11:02;25.33;;;15.63;;
29550;SDS011;16488;52.396;10.696;2022-08-26T04:15:54;22.67;;;15.20;;
29550;SDS011;16488;52.396;10.696;2022-08-26T04:18:19;26.83;;;16.47;;
29550;SDS011;16488;52.396;10.696;2022-08-26T04:20:55;36.75;;;16.13;;
29550;SDS011;16488;52.396;10.696;2022-08-26T04:23:21;27.60;;;16.87;;
29550;SDS011;16488;52.396;10.696;2022-08-26T04:25:46;34.13;;;17.17;;
29550;SDS011;16488;52.396;10.696;2022-08-26T04:28:12;28.27;;;16.77;;
29550;SDS011;16488;52.396;10.696;2022-08-26T04:30:38;27.80;;;15.38;;
29550;SDS011;16488;52.396;10.696;2022-08-26T04:33:04;31.80;;;16.35;;
29550;SDS011;16488;52.396;10.696;2022-08-26T04:35:31;26.70;;;15.07;;
29550;SDS011;16488;52.396;10.696;2022-08-26T04:40:23;25.52;;;14.82;;
29550;SDS011;16488;52.396;10.696;2022-08-26T04:42:51;28.23;;;15.75;;
29550;SDS011;16488;52.396;10.696;2022-08-26T04:45:17;28.27;;;15.25;;
29550;SDS011;16488;52.396;10.696;2022-08-26T04:47:42;27.40;;;16.03;;
29550;SDS011;16488;52.396;10.696;2022-08-26T04:50:08;35.53;;;16.33;;
29550;SDS011;16488;52.396;10.696;2022-08-26T04:52:34;29.38;;;15.73;;
29550;SDS011;16488;52.396;10.696;2022-08-26T04:55:00;26.95;;;16.73;;
29550;SDS011;16488;52.396;10.696;2022-08-26T04:57:26;25.65;;;16.35;;
29550;SDS011;16488;52.396;10.696;2022-08-26T04:59:51;31.23;;;16.20;;
29550;SDS011;16488;52.396;10.696;2022-08-26T05:02:17;31.83;;;15.90;;
29550;SDS011;16488;52.396;10.696;2022-08-26T05:04:43;23.42;;;15.93;;
29550;SDS011;16488;52.396;10.696;2022-08-26T05:07:09;31.65;;;17.20;;
29550;SDS011;16488;52.396;10.696;2022-08-26T05:09:36;30.88;;;17.98;;
29550;SDS011;16488;52.396;10.696;2022-08-26T05:12:03;32.60;;;18.10;;
29550;SDS011;16488;52.396;10.696;2022-08-26T05:14:29;25.60;;;16.58;;
29550;SDS011;16488;52.396;10.696;2022-08-26T05:16:55;27.38;;;16.95;;
29550;SDS011;16488;52.396;10.696;2022-08-26T05:19:20;31.25;;;18.42;;
29550;SDS011;16488;52.396;10.696;2022-08-26T05:21:47;31.05;;;17.25;;
29550;SDS011;16488;52.396;10.696;2022-08-26T05:24:13;33.28;;;17.35;;
29550;SDS011;16488;52.396;10.696;2022-08-26T05:26:39;28.10;;;18.80;;
29550;SDS011;16488;52.396;10.696;2022-08-26T05:29:05;31.27;;;17.63;;
29550;SDS011;16488;52.396;10.696;2022-08-26T05:31:31;25.90;;;17.63;;
29550;SDS011;16488;52.396;10.696;2022-08-26T05:33:58;24.73;;;16.27;;
29550;SDS011;16488;52.396;10.696;2022-08-26T05:36:28;28.60;;;17.23;;
29550;SDS011;16488;52.396;10.696;2022-08-26T05:38:55;36.83;;;17.25;;
29550;SDS011;16488;52.396;10.696;2022-08-26T05:41:28;34.30;;;17.40;;
29550;SDS011;16488;52.396;10.696;2022-08-26T05:43:59;25.73;;;16.30;;
29550;SDS011;16488;52.396;10.696;2022-08-26T05:46:26;30.05;;;18.33;;
29550;SDS011;16488;52.396;10.696;2022-08-26T05:48:53;30.50;;;18.15;;
29550;SDS011;16488;52.396;10.696;2022-08-26T05:53:45;31.65;;;16.50;;
29550;SDS011;16488;52.396;10.696;2022-08-26T05:56:11;35.85;;;16.63;;
29550;SDS011;16488;52.396;10.696;2022-08-26T05:58:38;29.05;;;16.35;;
29550;SDS011;16488;52.396;10.696;2022-08-26T06:01:06;24.80;;;15.63;;
29550;SDS011;16488;52.396;10.696;2022-08-26T06:03:35;34.97;;;16.70;;
29550;SDS011;16488;52.396;10.696;2022-08-26T06:06:05;29.20;;;17.42;;
29550;SDS011;16488;52.396;10.696;2022-08-26T06:08:41;27.05;;;15.05;;
29550;SDS011;16488;52.396;10.696;2022-08-26T06:11:09;32.45;;;17.42;;
29550;SDS011;16488;52.396;10.696;2022-08-26T06:13:36;38.45;;;16.77;;
29550;SDS011;16488;52.396;10.696;2022-08-26T06:16:04;28.05;;;15.57;;
29550;SDS011;16488;52.396;10.696;2022-08-26T06:18:34;34.60;;;16.27;;
29550;SDS011;16488;52.396;10.696;2022-08-26T06:21:15;25.02;;;16.05;;
29550;SDS011;16488;52.396;10.696;2022-08-26T06:23:41;32.65;;;16.10;;
29550;SDS011;16488;52.396;10.696;2022-08-26T06:26:27;28.60;;;15.30;;
29550;SDS011;16488;52.396;10.696;2022-08-26T06:28:53;28.70;;;15.77;;
29550;SDS011;16488;52.396;10.696;2022-08-26T06:31:19;29.23;;;15.75;;
29550;SDS011;16488;52.396;10.696;2022-08-26T06:33:46;29.63;;;14.70;;
29550;SDS011;16488;52.396;10.696;2022-08-26T06:36:19;29.70;;;15.07;;
29550;SDS011;16488;52.396;10.696;2022-08-26T06:38:47;31.67;;;15.15;;
29550;SDS011;16488;52.396;10.696;2022-08-26T06:41:14;35.55;;;14.95;;
29550;SDS011;16488;52.396;10.696;2022-08-26T06:43:40;31.00;;;14.57;;
29550;SDS011;16488;52.396;10.696;2022-08-26T06:46:08;30.02;;;13.57;;
29550;SDS011;16488;52.396;10.696;2022-08-26T06:48:35;41.15;;;15.27;;
29550;SDS011;16488;52.396;10.696;2022-08-26T06:53:33;26.23;;;14.60;;
29550;SDS011;16488;52.396;10.696;2022-08-26T06:56:01;30.98;;;15.32;;
29550;SDS011;16488;52.396;10.696;2022-08-26T06:58:28;36.42;;;15.30;;
29550;SDS011;16488;52.396;10.696;2022-08-26T07:00:54;32.97;;;15.35;;
29550;SDS011;16488;52.396;10.696;2022-08-26T07:03:21;21.20;;;14.02;;
29550;SDS011;16488;52.396;10.696;2022-08-26T07:05:47;23.67;;;13.07;;
29550;SDS011;16488;52.396;10.696;2022-08-26T07:10:38;31.27;;;14.20;;
29550;SDS011;16488;52.396;10.696;2022-08-26T07:13:04;34.30;;;14.70;;
29550;SDS011;16488;52.396;10.696;2022-08-26T07:15:31;28.00;;;14.10;;
29550;SDS011;16488;52.396;10.696;2022-08-26T07:17:57;33.08;;;14.48;;
29550;SDS011;16488;52.396;10.696;2022-08-26T07:20:23;26.40;;;14.13;;
29550;SDS011;16488;52.396;10.696;2022-08-26T07:22:48;32.75;;;13.95;;
29550;SDS011;16488;52.396;10.696;2022-08-26T07:25:14;36.17;;;14.13;;
29550;SDS011;16488;52.396;10.696;2022-08-26T07:27:39;37.72;;;14.60;;
29550;SDS011;16488;52.396;10.696;2022-08-26T07:30:05;36.90;;;14.18;;
29550;SDS011;16488;52.396;10.696;2022-08-26T07:32:31;29.27;;;13.93;;
29550;SDS011;16488;52.396;10.696;2022-08-26T07:34:57;29.08;;;13.40;;
29550;SDS011;16488;52.396;10.696;2022-08-26T07:37:23;39.58;;;14.88;;
29550;SDS011;16488;52.396;10.696;2022-08-26T07:39:49;28.92;;;14.18;;
29550;SDS011;16488;52.396;10.696;2022-08-26T07:42:15;33.25;;;13.57;;
29550;SDS011;16488;52.396;10.696;2022-08-26T07:44:42;27.92;;;13.30;;
29550;SDS011;16488;52.396;10.696;2022-08-26T07:47:08;32.60;;;12.93;;
29550;SDS011;16488;52.396;10.696;2022-08-26T07:49:35;27.85;;;13.55;;
29550;SDS011;16488;52.396;10.696;2022-08-26T07:54:27;27.80;;;12.93;;
29550;SDS011;16488;52.396;10.696;2022-08-26T07:56:53;36.20;;;13.15;;
29550;SDS011;16488;52.396;10.696;2022-08-26T07:59:19;38.85;;;14.10;;
29550;SDS011;16488;52.396;10.696;2022-08-26T08:01:45;44.80;;;14.75;;
29550;SDS011;16488;52.396;10.696;2022-08-26T08:04:12;35.03;;;14.30;;
29550;SDS011;16488;52.396;10.696;2022-08-26T08:06:38;31.75;;;13.82;;
29550;SDS011;16488;52.396;10.696;2022-08-26T08:09:04;28.63;;;13.00;;
29550;SDS011;16488;52.396;10.696;2022-08-26T08:11:30;34.75;;;12.77;;
29550;SDS011;16488;52.396;10.696;2022-08-26T08:16:25;35.13;;;13.27;;
29550;SDS011;16488;52.396;10.696;2022-08-26T08:18:53;34.47;;;12.60;;
29550;SDS011;16488;52.396;10.696;2022-08-26T08:21:20;33.40;;;12.82;;
29550;SDS011;16488;52.396;10.696;2022-08-26T08:23:48;33.92;;;13.05;;
29550;SDS011;16488;52.396;10.696;2022-08-26T08:26:14;39.60;;;12.80;;
29550;SDS011;16488;52.396;10.696;2022-08-26T08:28:40;31.10;;;13.27;;
29550;SDS011;16488;52.396;10.696;2022-08-26T08:31:05;48.83;;;13.02;;
29550;SDS011;16488;52.396;10.696;2022-08-26T08:33:31;31.42;;;13.65;;
29550;SDS011;16488;52.396;10.696;2022-08-26T08:35:59;33.10;;;12.77;;
29550;SDS011;16488;52.396;10.696;2022-08-26T08:38:26;27.27;;;12.68;;
29550;SDS011;16488;52.396;10.696;2022-08-26T08:40:52;28.42;;;13.38;;
29550;SDS011;16488;52.396;10.696;2022-08-26T08:45:59;31.63;;;13.57;;
29550;SDS011;16488;52.396;10.696;2022-08-26T08:48:32;33.08;;;13.35;;
29550;SDS011;16488;52.396;10.696;2022-08-26T08:51:03;38.97;;;14.30;;
29550;SDS011;16488;52.396;10.696;2022-08-26T08:53:32;35.35;;;13.05;;
29550;SDS011;16488;52.396;10.696;2022-08-26T08:59:04;36.67;;;13.80;;
29550;SDS011;16488;52.396;10.696;2022-08-26T09:01:53;34.30;;;11.68;;
29550;SDS011;16488;52.396;10.696;2022-08-26T09:07:19;41.70;;;12.68;;
29550;SDS011;16488;52.396;10.696;2022-08-26T09:09:57;35.75;;;12.35;;
29550;SDS011;16488;52.396;10.696;2022-08-26T09:12:27;45.13;;;13.77;;
29550;SDS011;16488;52.396;10.696;2022-08-26T09:14:59;36.95;;;12.85;;
29550;SDS011;16488;52.396;10.696;2022-08-26T09:17:32;36.42;;;11.32;;
29550;SDS011;16488;52.396;10.696;2022-08-26T09:20:34;42.58;;;13.35;;
29550;SDS011;16488;52.396;10.696;2022-08-26T09:23:11;33.05;;;12.35;;
29550;SDS011;16488;52.396;10.696;2022-08-26T09:28:44;38.58;;;11.40;;
29550;SDS011;16488;52.396;10.696;2022-08-26T09:31:32;33.05;;;10.93;;
29550;SDS011;16488;52.396;10.696;2022-08-26T09:34:15;41.05;;;11.70;;
29550;SDS011;16488;52.396;10.696;2022-08-26T09:36:50;44.28;;;11.35;;
29550;SDS011;16488;52.396;10.696;2022-08-26T09:44:32;42.10;;;11.57;;
29550;SDS011;16488;52.396;10.696;2022-08-26T09:47:04;29.65;;;10.52;;
29550;SDS011;16488;52.396;10.696;2022-08-26T09:49:35;39.10;;;11.38;;
29550;SDS011;16488;52.396;10.696;2022-08-26T09:52:16;42.53;;;11.82;;
29550;SDS011;16488;52.396;10.696;2022-08-26T09:54:59;32.70;;;10.93;;
29550;SDS011;16488;52.396;10.696;2022-08-26T09:57:26;46.00;;;12.35;;
29550;SDS011;16488;52.396;10.696;2022-08-26T09:59:54;35.20;;;12.07;;
29550;SDS011;16488;52.396;10.696;2022-08-26T10:04:58;35.08;;;11.35;;
29550;SDS011;16488;52.396;10.696;2022-08-26T10:07:33;37.40;;;10.10;;
29550;SDS011;16488;52.396;10.696;2022-08-26T10:10:21;43.80;;;12.13;;
29550;SDS011;16488;52.396;10.696;2022-08-26T10:13:11;32.15;;;11.27;;
29550;SDS011;16488;52.396;10.696;2022-08-26T10:18:44;37.13;;;11.95;;
29550;SDS011;16488;52.396;10.696;2022-08-26T10:21:20;34.53;;;10.55;;
29550;SDS011;16488;52.396;10.696;2022-08-26T10:23:51;37.33;;;10.27;;
29550;SDS011;16488;52.396;10.696;2022-08-26T10:29:06;34.47;;;11.40;;
29550;SDS011;16488;52.396;10.696;2022-08-26T10:31:45;37.55;;;11.75;;
29550;SDS011;16488;52.396;10.696;2022-08-26T10:34:16;31.48;;;11.10;;
29550;SDS011;16488;52.396;10.696;2022-08-26T10:37:02;38.10;;;11.88;;
29550;SDS011;16488;52.396;10.696;2022-08-26T10:39:35;36.50;;;11.40;;
29550;SDS011;16488;52.396;10.696;2022-08-26T10:42:31;33.45;;;10.80;;
29550;SDS011;16488;52.396;10.696;2022-08-26T10:45:05;49.42;;;11.68;;
29550;SDS011;16488;52.396;10.696;2022-08-26T10:47:46;24.20;;;9.60;;
29550;SDS011;16488;52.396;10.696;2022-08-26T10:50:24;33.47;;;10.77;;
29550;SDS011;16488;52.396;10.696;2022-08-26T10:53:16;38.65;;;10.85;;
29550;SDS011;16488;52.396;10.696;2022-08-26T10:58:59;41.17;;;11.00;;
29550;SDS011;16488;52.396;10.696;2022-08-26T11:01:34;30.30;;;10.15;;
29550;SDS011;16488;52.396;10.696;2022-08-26T11:06:38;34.20;;;10.88;;
29550;SDS011;16488;52.396;10.696;2022-08-26T11:16:49;30.85;;;10.85;;
29550;SDS011;16488;52.396;10.696;2022-08-26T11:19:56;34.30;;;10.85;;
29550;SDS011;16488;52.396;10.696;2022-08-26T11:22:29;39.95;;;11.18;;
29550;SDS011;16488;52.396;10.696;2022-08-26T11:25:01;40.55;;;10.80;;
29550;SDS011;16488;52.396;10.696;2022-08-26T11:35:03;46.90;;;11.52;;
29550;SDS011;16488;52.396;10.696;2022-08-26T11:37:55;37.53;;;10.43;;
29550;SDS011;16488;52.396;10.696;2022-08-26T11:40:33;35.53;;;10.27;;
29550;SDS011;16488;52.396;10.696;2022-08-26T11:45:46;34.17;;;10.32;;
29550;SDS011;16488;52.396;10.696;2022-08-26T11:48:28;30.10;;;9.52;;
29550;SDS011;16488;52.396;10.696;2022-08-26T11:51:03;32.10;;;10.93;;
29550;SDS011;16488;52.396;10.696;2022-08-26T11:53:34;34.42;;;10.27;;
29550;SDS011;16488;52.396;10.696;2022-08-26T11:56:04;32.17;;;9.50;;
29550;SDS011;16488;52.396;10.696;2022-08-26T11:58:35;38.72;;;10.73;;
29550;SDS011;16488;52.396;10.696;2022-08-26T12:01:09;36.17;;;10.80;;
29550;SDS011;16488;52.396;10.696;2022-08-26T12:03:44;27.48;;;8.68;;
29550;SDS011;16488;52.396;10.696;2022-08-26T12:08:44;23.52;;;8.48;;
29550;SDS011;16488;52.396;10.696;2022-08-26T12:11:12;29.80;;;10.13;;
29550;SDS011;16488;52.396;10.696;2022-08-26T12:13:56;28.13;;;9.80;;
29550;SDS011;16488;52.396;10.696;2022-08-26T12:16:28;26.25;;;9.23;;
29550;SDS011;16488;52.396;10.696;2022-08-26T12:18:55;32.97;;;10.40;;
29550;SDS011;16488;52.396;10.696;2022-08-26T12:21:23;30.83;;;9.98;;
29550;SDS011;16488;52.396;10.696;2022-08-26T12:23:53;29.23;;;9.55;;
29550;SDS011;16488;52.396;10.696;2022-08-26T12:26:25;30.80;;;9.25;;
29550;SDS011;16488;52.396;10.696;2022-08-26T12:31:39;21.50;;;8.68;;
29550;SDS011;16488;52.396;10.696;2022-08-26T12:34:07;22.70;;;8.02;;
29550;SDS011;16488;52.396;10.696;2022-08-26T12:36:39;27.42;;;8.20;;
29550;SDS011;16488;52.396;10.696;2022-08-26T12:39:26;35.50;;;8.20;;
29550;SDS011;16488;52.396;10.696;2022-08-26T12:41:55;26.55;;;7.90;;
29550;SDS011;16488;52.396;10.696;2022-08-26T12:47:01;21.98;;;7.57;;
29550;SDS011;16488;52.396;10.696;2022-08-26T12:49:29;27.90;;;8.02;;
29550;SDS011;16488;52.396;10.696;2022-08-26T12:51:54;28.50;;;7.22;;
29550;SDS011;16488;52.396;10.696;2022-08-26T12:54:20;20.73;;;7.20;;
29550;SDS011;16488;52.396;10.696;2022-08-26T12:57:09;23.52;;;6.70;;
29550;SDS011;16488;52.396;10.696;2022-08-26T12:59:36;16.35;;;6.18;;
29550;SDS011;16488;52.396;10.696;2022-08-26T13:02:01;21.75;;;6.72;;
29550;SDS011;16488;52.396;10.696;2022-08-26T13:04:38;26.27;;;7.25;;
29550;SDS011;16488;52.396;10.696;2022-08-26T13:07:19;22.42;;;7.10;;
29550;SDS011;16488;52.396;10.696;2022-08-26T13:09:47;29.52;;;7.28;;
29550;SDS011;16488;52.396;10.696;2022-08-26T13:12:30;19.98;;;6.43;;
29550;SDS011;16488;52.396;10.696;2022-08-26T13:15:01;28.08;;;7.28;;
29550;SDS011;16488;52.396;10.696;2022-08-26T13:17:29;24.80;;;8.00;;
29550;SDS011;16488;52.396;10.696;2022-08-26T13:19:55;20.85;;;5.93;;
29550;SDS011;16488;52.396;10.696;2022-08-26T13:22:22;23.30;;;8.05;;
29550;SDS011;16488;52.396;10.696;2022-08-26T13:24:49;29.67;;;7.55;;
29550;SDS011;16488;52.396;10.696;2022-08-26T13:27:18;20.05;;;7.22;;
29550;SDS011;16488;52.396;10.696;2022-08-26T13:29:45;24.90;;;7.43;;
29550;SDS011;16488;52.396;10.696;2022-08-26T13:32:11;26.67;;;8.07;;
29550;SDS011;16488;52.396;10.696;2022-08-26T13:34:38;33.88;;;8.45;;
29550;SDS011;16488;52.396;10.696;2022-08-26T13:37:04;24.50;;;7.65;;
29550;SDS011;16488;52.396;10.696;2022-08-26T13:39:30;30.45;;;7.90;;
29550;SDS011;16488;52.396;10.696;2022-08-26T13:41:56;25.48;;;6.53;;
29550;SDS011;16488;52.396;10.696;2022-08-26T13:44:22;30.63;;;7.50;;
29550;SDS011;16488;52.396;10.696;2022-08-26T13:46:48;27.08;;;7.82;;
29550;SDS011;16488;52.396;10.696;2022-08-26T13:49:14;26.08;;;8.93;;
29550;SDS011;16488;52.396;10.696;2022-08-26T13:51:39;40.85;;;9.82;;
29550;SDS011;16488;52.396;10.696;2022-08-26T13:56:31;57.95;;;10.50;;
29550;SDS011;16488;52.396;10.696;2022-08-26T13:58:58;59.15;;;10.70;;
29550;SDS011;16488;52.396;10.696;2022-08-26T14:01:25;32.55;;;9.32;;
29550;SDS011;16488;52.396;10.696;2022-08-26T14:03:53;23.88;;;9.80;;
29550;SDS011;16488;52.396;10.696;2022-08-26T14:06:19;34.88;;;8.88;;
29550;SDS011;16488;52.396;10.696;2022-08-26T14:08:45;23.80;;;8.80;;
29550;SDS011;16488;52.396;10.696;2022-08-26T14:11:11;33.35;;;9.23;;
29550;SDS011;16488;52.396;10.696;2022-08-26T14:13:37;29.00;;;9.15;;
29550;SDS011;16488;52.396;10.696;2022-08-26T14:16:03;31.10;;;9.35;;
29550;SDS011;16488;52.396;10.696;2022-08-26T14:18:34;29.20;;;8.50;;
29550;SDS011;16488;52.396;10.696;2022-08-26T14:21:03;25.92;;;8.98;;
29550;SDS011;16488;52.396;10.696;2022-08-26T14:23:30;30.08;;;9.43;;
29550;SDS011;16488;52.396;10.696;2022-08-26T14:25:56;31.90;;;10.00;;
29550;SDS011;16488;52.396;10.696;2022-08-26T14:28:22;28.88;;;8.82;;
29550;SDS011;16488;52.396;10.696;2022-08-26T14:30:54;34.20;;;9.00;;
29550;SDS011;16488;52.396;10.696;2022-08-26T14:33:26;28.65;;;8.70;;
29550;SDS011;16488;52.396;10.696;2022-08-26T14:35:56;20.00;;;7.75;;
29550;SDS011;16488;52.396;10.696;2022-08-26T14:38:42;30.58;;;8.52;;
29550;SDS011;16488;52.396;10.696;2022-08-26T14:41:08;16.45;;;8.93;;
29550;SDS011;16488;52.396;10.696;2022-08-26T14:43:34;14.63;;;8.63;;
29550;SDS011;16488;52.396;10.696;2022-08-26T14:46:01;21.60;;;7.80;;
29550;SDS011;16488;52.396;10.696;2022-08-26T14:48:27;16.10;;;7.20;;
29550;SDS011;16488;52.396;10.696;2022-08-26T14:50:52;16.00;;;6.90;;
29550;SDS011;16488;52.396;10.696;2022-08-26T14:53:18;22.58;;;7.03;;
29550;SDS011;16488;52.396;10.696;2022-08-26T14:56:02;13.75;;;5.65;;
29550;SDS011;16488;52.396;10.696;2022-08-26T14:58:27;13.68;;;5.43;;
29550;SDS011;16488;52.396;10.696;2022-08-26T15:00:53;16.45;;;5.57;;
29550;SDS011;16488;52.396;10.696;2022-08-26T15:03:19;13.98;;;5.20;;
29550;SDS011;16488;52.396;10.696;2022-08-26T15:05:44;12.05;;;5.82;;
29550;SDS011;16488;52.396;10.696;2022-08-26T15:08:10;17.45;;;5.82;;
29550;SDS011;16488;52.396;10.696;2022-08-26T15:10:36;18.02;;;7.07;;
29550;SDS011;16488;52.396;10.696;2022-08-26T15:13:02;15.35;;;6.93;;
29550;SDS011;16488;52.396;10.696;2022-08-26T15:15:28;26.38;;;7.43;;
29550;SDS011;16488;52.396;10.696;2022-08-26T15:17:54;27.77;;;7.15;;
29550;SDS011;16488;52.396;10.696;2022-08-26T15:20:20;21.55;;;7.07;;
29550;SDS011;16488;52.396;10.696;2022-08-26T15:22:45;17.25;;;6.75;;
29550;SDS011;16488;52.396;10.696;2022-08-26T15:25:11;17.65;;;6.55;;
29550;SDS011;16488;52.396;10.696;2022-08-26T15:27:37;19.25;;;6.75;;
29550;SDS011;16488;52.396;10.696;2022-08-26T15:30:04;18.10;;;6.82;;
29550;SDS011;16488;52.396;10.696;2022-08-26T15:32:31;17.92;;;5.65;;
29550;SDS011;16488;52.396;10.696;2022-08-26T15:34:57;18.73;;;6.55;;
29550;SDS011;16488;52.396;10.696;2022-08-26T15:37:22;14.38;;;5.13;;
29550;SDS011;16488;52.396;10.696;2022-08-26T15:43:10;8.05;;;3.38;;